sensor_id;sensor_type;location;lat;lon;timestamp;temperature;humidity
64918;HTU21D;52176;44.858;38.372;2023-02-10T00:01:52;-12.01;76.31
64918;HTU21D;52176;44.858;38.372;2023-02-10T00:04:19;-12.05;76.34
64918;HTU21D;52176;44.858;38.372;2023-02-10T00:06:44;-12.06;76.34
64918;HTU21D;52176;44.858;38.372;2023-02-10T00:09:12;-12.06;76.33
64918;HTU21D;52176;44.858;38.372;2023-02-10T00:11:39;-12.06;76.37
64918;HTU21D;52176;44.858;38.372;2023-02-10T00:14:24;-12.06;76.34
64918;HTU21D;52176;44.858;38.372;2023-02-10T00:16:51;-12.06;76.33
64918;HTU21D;52176;44.858;38.372;2023-02-10T00:19:19;-12.09;76.24
64918;HTU21D;52176;44.858;38.372;2023-02-10T00:21:45;-12.12;76.28
64918;HTU21D;52176;44.858;38.372;2023-02-10T00:24:11;-12.15;76.31
64918;HTU21D;52176;44.858;38.372;2023-02-10T00:26:37;-12.17;76.34
64918;HTU21D;52176;44.858;38.372;2023-02-10T00:29:03;-12.19;76.32
64918;HTU21D;52176;44.858;38.372;2023-02-10T00:31:29;-12.21;76.31
64918;HTU21D;52176;44.858;38.372;2023-02-10T00:33:56;-12.24;76.32
64918;HTU21D;52176;44.858;38.372;2023-02-10T00:36:22;-12.26;76.34
64918;HTU21D;52176;44.858;38.372;2023-02-10T00:38:51;-12.26;76.38
64918;HTU21D;52176;44.858;38.372;2023-02-10T00:41:20;-12.29;76.41
64918;HTU21D;52176;44.858;38.372;2023-02-10T00:43:46;-12.28;76.39
64918;HTU21D;52176;44.858;38.372;2023-02-10T00:46:15;-12.28;76.37
64918;HTU21D;52176;44.858;38.372;2023-02-10T00:48:41;-12.28;76.37
64918;HTU21D;52176;44.858;38.372;2023-02-10T00:51:09;-12.30;76.32
64918;HTU21D;52176;44.858;38.372;2023-02-10T00:53:35;-12.30;76.34
64918;HTU21D;52176;44.858;38.372;2023-02-10T00:56:33;-12.29;76.37
64918;HTU21D;52176;44.858;38.372;2023-02-10T00:58:59;-12.32;76.33
64918;HTU21D;52176;44.858;38.372;2023-02-10T01:01:25;-12.30;76.36
64918;HTU21D;52176;44.858;38.372;2023-02-10T01:03:51;-12.30;76.36
64918;HTU21D;52176;44.858;38.372;2023-02-10T01:06:17;-12.29;76.38
64918;HTU21D;52176;44.858;38.372;2023-02-10T01:08:43;-12.29;76.37
64918;HTU21D;52176;44.858;38.372;2023-02-10T01:11:11;-12.28;76.39
64918;HTU21D;52176;44.858;38.372;2023-02-10T01:13:38;-12.26;76.35
64918;HTU21D;52176;44.858;38.372;2023-02-10T01:16:10;-12.26;76.34
64918;HTU21D;52176;44.858;38.372;2023-02-10T01:19:09;-12.29;76.28
64918;HTU21D;52176;44.858;38.372;2023-02-10T01:21:35;-12.32;76.30
64918;HTU21D;52176;44.858;38.372;2023-02-10T01:24:05;-12.34;76.32
64918;HTU21D;52176;44.858;38.372;2023-02-10T01:26:32;-12.35;76.37
64918;HTU21D;52176;44.858;38.372;2023-02-10T01:28:58;-12.34;76.36
64918;HTU21D;52176;44.858;38.372;2023-02-10T01:31:24;-12.35;76.35
64918;HTU21D;52176;44.858;38.372;2023-02-10T01:33:51;-12.33;76.41
64918;HTU21D;52176;44.858;38.372;2023-02-10T01:36:20;-12.33;76.35
64918;HTU21D;52176;44.858;38.372;2023-02-10T01:38:46;-12.30;76.36
64918;HTU21D;52176;44.858;38.372;2023-02-10T01:41:15;-12.29;76.39
64918;HTU21D;52176;44.858;38.372;2023-02-10T01:47:17;-12.30;76.31
64918;HTU21D;52176;44.858;38.372;2023-02-10T01:49:47;-12.28;76.41
64918;HTU21D;52176;44.858;38.372;2023-02-10T01:52:16;-12.26;76.37
64918;HTU21D;52176;44.858;38.372;2023-02-10T01:54:55;-12.21;76.40
64918;HTU21D;52176;44.858;38.372;2023-02-10T01:57:23;-12.15;76.37
64918;HTU21D;52176;44.858;38.372;2023-02-10T01:59:50;-12.13;76.32
64918;HTU21D;52176;44.858;38.372;2023-02-10T02:02:17;-12.11;76.36
64918;HTU21D;52176;44.858;38.372;2023-02-10T02:04:53;-12.10;76.30
64918;HTU21D;52176;44.858;38.372;2023-02-10T02:07:22;-12.07;76.30
64918;HTU21D;52176;44.858;38.372;2023-02-10T02:09:50;-12.05;76.28
64918;HTU21D;52176;44.858;38.372;2023-02-10T02:15:30;-12.04;76.28
64918;HTU21D;52176;44.858;38.372;2023-02-10T02:27:32;-11.92;76.36
64918;HTU21D;52176;44.858;38.372;2023-02-10T02:32:34;-11.88;76.30
64918;HTU21D;52176;44.858;38.372;2023-02-10T02:35:07;-11.85;76.31
64918;HTU21D;52176;44.858;38.372;2023-02-10T02:37:38;-11.84;76.29
64918;HTU21D;52176;44.858;38.372;2023-02-10T02:40:07;-11.80;76.33
64918;HTU21D;52176;44.858;38.372;2023-02-10T02:42:34;-11.77;76.31
64918;HTU21D;52176;44.858;38.372;2023-02-10T02:45:21;-11.70;76.30
64918;HTU21D;52176;44.858;38.372;2023-02-10T02:59:34;-11.45;76.20
64918;HTU21D;52176;44.858;38.372;2023-02-10T03:04:42;-11.39;76.15
64918;HTU21D;52176;44.858;38.372;2023-02-10T03:07:09;-11.38;76.17
64918;HTU21D;52176;44.858;38.372;2023-02-10T03:09:35;-11.37;76.21
64918;HTU21D;52176;44.858;38.372;2023-02-10T03:12:01;-11.35;76.23
64918;HTU21D;52176;44.858;38.372;2023-02-10T03:14:27;-11.35;76.22
64918;HTU21D;52176;44.858;38.372;2023-02-10T03:16:53;-11.34;76.24
64918;HTU21D;52176;44.858;38.372;2023-02-10T03:19:19;-11.32;76.28
64918;HTU21D;52176;44.858;38.372;2023-02-10T03:21:45;-11.30;76.30
64918;HTU21D;52176;44.858;38.372;2023-02-10T03:24:13;-11.26;76.31
64918;HTU21D;52176;44.858;38.372;2023-02-10T03:26:39;-11.23;76.31
64918;HTU21D;52176;44.858;38.372;2023-02-10T03:29:06;-11.20;76.34
64918;HTU21D;52176;44.858;38.372;2023-02-10T03:31:32;-11.16;76.34
64918;HTU21D;52176;44.858;38.372;2023-02-10T03:33:58;-11.10;76.32
64918;HTU21D;52176;44.858;38.372;2023-02-10T03:36:24;-11.06;76.34
64918;HTU21D;52176;44.858;38.372;2023-02-10T03:38:50;-11.01;76.33
64918;HTU21D;52176;44.858;38.372;2023-02-10T03:41:16;-10.96;76.31
64918;HTU21D;52176;44.858;38.372;2023-02-10T03:43:42;-10.92;76.33
64918;HTU21D;52176;44.858;38.372;2023-02-10T03:46:09;-10.86;76.29
64918;HTU21D;52176;44.858;38.372;2023-02-10T03:48:35;-10.80;76.27
64918;HTU21D;52176;44.858;38.372;2023-02-10T03:51:04;-10.76;76.24
64918;HTU21D;52176;44.858;38.372;2023-02-10T03:53:31;-10.72;76.22
64918;HTU21D;52176;44.858;38.372;2023-02-10T03:55:58;-10.66;76.22
64918;HTU21D;52176;44.858;38.372;2023-02-10T03:58:24;-10.62;76.26
64918;HTU21D;52176;44.858;38.372;2023-02-10T04:01:22;-10.58;76.21
64918;HTU21D;52176;44.858;38.372;2023-02-10T04:04:20;-10.52;76.27
64918;HTU21D;52176;44.858;38.372;2023-02-10T04:06:46;-10.50;76.24
64918;HTU21D;52176;44.858;38.372;2023-02-10T04:09:12;-10.47;76.28
64918;HTU21D;52176;44.858;38.372;2023-02-10T04:11:38;-10.38;76.36
64918;HTU21D;52176;44.858;38.372;2023-02-10T04:14:04;-10.33;76.28
64918;HTU21D;52176;44.858;38.372;2023-02-10T04:16:30;-10.30;76.22
64918;HTU21D;52176;44.858;38.372;2023-02-10T04:18:57;-10.29;76.21
64918;HTU21D;52176;44.858;38.372;2023-02-10T04:21:23;-10.28;76.26
64918;HTU21D;52176;44.858;38.372;2023-02-10T04:23:51;-10.26;76.29
64918;HTU21D;52176;44.858;38.372;2023-02-10T04:26:17;-10.23;76.34
64918;HTU21D;52176;44.858;38.372;2023-02-10T04:28:43;-10.21;76.37
64918;HTU21D;52176;44.858;38.372;2023-02-10T04:31:09;-10.17;76.41
64918;HTU21D;52176;44.858;38.372;2023-02-10T04:33:36;-10.13;76.39
64918;HTU21D;52176;44.858;38.372;2023-02-10T04:36:02;-10.07;76.45
64918;HTU21D;52176;44.858;38.372;2023-02-10T04:38:29;-10.04;76.46
64918;HTU21D;52176;44.858;38.372;2023-02-10T04:40:55;-10.01;76.42
64918;HTU21D;52176;44.858;38.372;2023-02-10T04:43:21;-9.99;76.47
64918;HTU21D;52176;44.858;38.372;2023-02-10T04:45:47;-9.97;76.52
64918;HTU21D;52176;44.858;38.372;2023-02-10T04:48:14;-9.91;76.55
64918;HTU21D;52176;44.858;38.372;2023-02-10T04:50:40;-9.89;76.56
64918;HTU21D;52176;44.858;38.372;2023-02-10T04:53:06;-9.86;76.55
64918;HTU21D;52176;44.858;38.372;2023-02-10T04:55:33;-9.82;76.58
64918;HTU21D;52176;44.858;38.372;2023-02-10T04:58:00;-9.77;76.58
64918;HTU21D;52176;44.858;38.372;2023-02-10T05:00:26;-9.76;76.54
64918;HTU21D;52176;44.858;38.372;2023-02-10T05:02:52;-9.73;76.62
64918;HTU21D;52176;44.858;38.372;2023-02-10T05:05:18;-9.70;76.63
64918;HTU21D;52176;44.858;38.372;2023-02-10T05:07:44;-9.67;76.64
64918;HTU21D;52176;44.858;38.372;2023-02-10T05:10:11;-9.61;76.68
64918;HTU21D;52176;44.858;38.372;2023-02-10T05:12:37;-9.57;76.68
64918;HTU21D;52176;44.858;38.372;2023-02-10T05:15:03;-9.52;76.66
64918;HTU21D;52176;44.858;38.372;2023-02-10T05:17:29;-9.47;76.67
64918;HTU21D;52176;44.858;38.372;2023-02-10T05:19:55;-9.42;76.67
64918;HTU21D;52176;44.858;38.372;2023-02-10T05:22:21;-9.36;76.69
64918;HTU21D;52176;44.858;38.372;2023-02-10T05:24:50;-9.27;76.71
64918;HTU21D;52176;44.858;38.372;2023-02-10T05:27:17;-9.20;76.66
64918;HTU21D;52176;44.858;38.372;2023-02-10T05:29:43;-9.15;76.60
64918;HTU21D;52176;44.858;38.372;2023-02-10T05:32:09;-9.10;76.62
64918;HTU21D;52176;44.858;38.372;2023-02-10T05:34:35;-9.04;76.63
64918;HTU21D;52176;44.858;38.372;2023-02-10T05:37:01;-8.97;76.65
64918;HTU21D;52176;44.858;38.372;2023-02-10T05:39:27;-8.93;76.66
64918;HTU21D;52176;44.858;38.372;2023-02-10T05:41:55;-8.87;76.62
64918;HTU21D;52176;44.858;38.372;2023-02-10T05:44:23;-8.81;76.62
64918;HTU21D;52176;44.858;38.372;2023-02-10T05:46:50;-8.73;76.64
64918;HTU21D;52176;44.858;38.372;2023-02-10T05:49:48;-8.63;76.67
64918;HTU21D;52176;44.858;38.372;2023-02-10T05:52:14;-8.55;76.63
64918;HTU21D;52176;44.858;38.372;2023-02-10T05:54:40;-8.48;76.61
64918;HTU21D;52176;44.858;38.372;2023-02-10T05:57:07;-8.41;76.59
64918;HTU21D;52176;44.858;38.372;2023-02-10T05:59:33;-8.35;76.60
64918;HTU21D;52176;44.858;38.372;2023-02-10T06:01:59;-8.28;76.57
64918;HTU21D;52176;44.858;38.372;2023-02-10T06:04:25;-8.24;76.58
64918;HTU21D;52176;44.858;38.372;2023-02-10T06:06:51;-8.20;76.58
64918;HTU21D;52176;44.858;38.372;2023-02-10T06:09:17;-8.16;76.63
64918;HTU21D;52176;44.858;38.372;2023-02-10T06:11:43;-8.11;76.68
64918;HTU21D;52176;44.858;38.372;2023-02-10T06:14:09;-8.01;76.71
64918;HTU21D;52176;44.858;38.372;2023-02-10T06:16:34;-7.95;76.71
64918;HTU21D;52176;44.858;38.372;2023-02-10T06:19:00;-7.87;76.68
64918;HTU21D;52176;44.858;38.372;2023-02-10T06:21:26;-7.82;76.70
64918;HTU21D;52176;44.858;38.372;2023-02-10T06:23:53;-7.74;76.73
64918;HTU21D;52176;44.858;38.372;2023-02-10T06:26:19;-7.67;76.67
64918;HTU21D;52176;44.858;38.372;2023-02-10T06:28:45;-7.61;76.67
64918;HTU21D;52176;44.858;38.372;2023-02-10T06:31:10;-7.56;76.65
64918;HTU21D;52176;44.858;38.372;2023-02-10T06:33:36;-7.53;76.69
64918;HTU21D;52176;44.858;38.372;2023-02-10T06:36:03;-7.49;76.71
64918;HTU21D;52176;44.858;38.372;2023-02-10T06:38:32;-7.40;76.79
64918;HTU21D;52176;44.858;38.372;2023-02-10T06:40:58;-7.31;76.81
64918;HTU21D;52176;44.858;38.372;2023-02-10T06:43:24;-7.23;76.79
64918;HTU21D;52176;44.858;38.372;2023-02-10T06:45:50;-7.15;76.76
64918;HTU21D;52176;44.858;38.372;2023-02-10T06:48:16;-7.07;76.76
64918;HTU21D;52176;44.858;38.372;2023-02-10T06:50:42;-7.00;76.72
64918;HTU21D;52176;44.858;38.372;2023-02-10T06:53:08;-6.90;76.69
64918;HTU21D;52176;44.858;38.372;2023-02-10T06:55:35;-6.86;76.75
64918;HTU21D;52176;44.858;38.372;2023-02-10T06:58:01;-6.78;76.72
64918;HTU21D;52176;44.858;38.372;2023-02-10T07:00:27;-6.70;76.71
64918;HTU21D;52176;44.858;38.372;2023-02-10T07:02:54;-6.65;76.73
64918;HTU21D;52176;44.858;38.372;2023-02-10T07:05:20;-6.56;76.80
64918;HTU21D;52176;44.858;38.372;2023-02-10T07:07:46;-6.46;76.79
64918;HTU21D;52176;44.858;38.372;2023-02-10T07:10:12;-6.36;76.73
64918;HTU21D;52176;44.858;38.372;2023-02-10T07:12:38;-6.31;76.68
64918;HTU21D;52176;44.858;38.372;2023-02-10T07:15:05;-6.26;76.70
64918;HTU21D;52176;44.858;38.372;2023-02-10T07:17:31;-6.19;76.68
64918;HTU21D;52176;44.858;38.372;2023-02-10T07:19:58;-6.11;76.71
64918;HTU21D;52176;44.858;38.372;2023-02-10T07:22:24;-5.99;76.69
64918;HTU21D;52176;44.858;38.372;2023-02-10T07:24:50;-5.86;76.66
64918;HTU21D;52176;44.858;38.372;2023-02-10T07:27:16;-5.74;76.61
64918;HTU21D;52176;44.858;38.372;2023-02-10T07:29:42;-5.63;76.55
64918;HTU21D;52176;44.858;38.372;2023-02-10T07:32:08;-5.52;76.56
64918;HTU21D;52176;44.858;38.372;2023-02-10T07:34:34;-5.41;76.45
64918;HTU21D;52176;44.858;38.372;2023-02-10T07:37:01;-5.33;76.37
64918;HTU21D;52176;44.858;38.372;2023-02-10T07:39:27;-5.26;76.41
64918;HTU21D;52176;44.858;38.372;2023-02-10T07:41:53;-5.18;76.35
64918;HTU21D;52176;44.858;38.372;2023-02-10T07:44:26;-5.14;76.37
64918;HTU21D;52176;44.858;38.372;2023-02-10T07:46:52;-5.09;76.41
64918;HTU21D;52176;44.858;38.372;2023-02-10T07:49:18;-5.01;76.44
64918;HTU21D;52176;44.858;38.372;2023-02-10T07:51:44;-4.91;76.47
64918;HTU21D;52176;44.858;38.372;2023-02-10T07:54:11;-4.80;76.44
64918;HTU21D;52176;44.858;38.372;2023-02-10T07:56:37;-4.71;76.44
64918;HTU21D;52176;44.858;38.372;2023-02-10T07:59:03;-4.60;76.37
64918;HTU21D;52176;44.858;38.372;2023-02-10T08:02:01;-4.52;76.28
64918;HTU21D;52176;44.858;38.372;2023-02-10T08:04:30;-4.48;76.32
64918;HTU21D;52176;44.858;38.372;2023-02-10T08:06:56;-4.39;76.31
64918;HTU21D;52176;44.858;38.372;2023-02-10T08:09:22;-4.34;76.27
64918;HTU21D;52176;44.858;38.372;2023-02-10T08:11:48;-4.26;76.28
64918;HTU21D;52176;44.858;38.372;2023-02-10T08:14:14;-4.19;76.24
64918;HTU21D;52176;44.858;38.372;2023-02-10T08:16:40;-4.15;76.18
64918;HTU21D;52176;44.858;38.372;2023-02-10T08:19:06;-4.15;76.18
64918;HTU21D;52176;44.858;38.372;2023-02-10T08:21:32;-4.12;76.19
64918;HTU21D;52176;44.858;38.372;2023-02-10T08:23:58;-4.09;76.27
64918;HTU21D;52176;44.858;38.372;2023-02-10T08:26:24;-4.05;76.28
64918;HTU21D;52176;44.858;38.372;2023-02-10T08:28:51;-3.99;76.24
64918;HTU21D;52176;44.858;38.372;2023-02-10T08:31:17;-3.89;76.30
64918;HTU21D;52176;44.858;38.372;2023-02-10T08:34:17;-3.67;76.24
64918;HTU21D;52176;44.858;38.372;2023-02-10T08:36:44;-3.52;76.06
64918;HTU21D;52176;44.858;38.372;2023-02-10T08:39:10;-3.36;75.99
64918;HTU21D;52176;44.858;38.372;2023-02-10T08:41:37;-3.15;75.95
64918;HTU21D;52176;44.858;38.372;2023-02-10T08:44:04;-2.93;75.72
64918;HTU21D;52176;44.858;38.372;2023-02-10T08:47:02;-2.76;75.43
64918;HTU21D;52176;44.858;38.372;2023-02-10T08:49:28;-2.66;75.38
64918;HTU21D;52176;44.858;38.372;2023-02-10T08:51:55;-2.56;75.31
64918;HTU21D;52176;44.858;38.372;2023-02-10T08:54:21;-2.47;75.28
64918;HTU21D;52176;44.858;38.372;2023-02-10T08:56:48;-2.36;75.18
64918;HTU21D;52176;44.858;38.372;2023-02-10T08:59:14;-2.31;75.12
64918;HTU21D;52176;44.858;38.372;2023-02-10T09:01:40;-2.20;75.15
64918;HTU21D;52176;44.858;38.372;2023-02-10T09:04:06;-2.08;75.05
64918;HTU21D;52176;44.858;38.372;2023-02-10T09:06:38;-1.94;74.97
64918;HTU21D;52176;44.858;38.372;2023-02-10T09:09:14;-1.85;74.79
64918;HTU21D;52176;44.858;38.372;2023-02-10T09:11:41;-1.77;74.72
64918;HTU21D;52176;44.858;38.372;2023-02-10T09:14:08;-1.69;74.70
64918;HTU21D;52176;44.858;38.372;2023-02-10T09:16:35;-1.59;74.54
64918;HTU21D;52176;44.858;38.372;2023-02-10T09:19:01;-1.55;74.50
64918;HTU21D;52176;44.858;38.372;2023-02-10T09:21:27;-1.47;74.52
64918;HTU21D;52176;44.858;38.372;2023-02-10T09:24:26;-1.35;74.41
64918;HTU21D;52176;44.858;38.372;2023-02-10T09:26:52;-1.26;74.38
64918;HTU21D;52176;44.858;38.372;2023-02-10T09:29:18;-1.15;74.26
64918;HTU21D;52176;44.858;38.372;2023-02-10T09:31:44;-1.10;74.09
64918;HTU21D;52176;44.858;38.372;2023-02-10T09:34:10;-1.10;74.06
64918;HTU21D;52176;44.858;38.372;2023-02-10T09:36:36;-1.08;74.10
64918;HTU21D;52176;44.858;38.372;2023-02-10T09:39:02;-1.08;74.02
64918;HTU21D;52176;44.858;38.372;2023-02-10T09:41:39;-1.02;74.05
64918;HTU21D;52176;44.858;38.372;2023-02-10T09:44:16;-0.95;73.98
64918;HTU21D;52176;44.858;38.372;2023-02-10T09:49:58;-0.85;73.91
64918;HTU21D;52176;44.858;38.372;2023-02-10T09:55:22;-0.70;73.77
64918;HTU21D;52176;44.858;38.372;2023-02-10T09:58:03;-0.59;73.67
64918;HTU21D;52176;44.858;38.372;2023-02-10T10:00:39;-0.46;73.60
64918;HTU21D;52176;44.858;38.372;2023-02-10T10:03:10;-0.30;73.46
64918;HTU21D;52176;44.858;38.372;2023-02-10T10:09:03;-0.08;73.14
64918;HTU21D;52176;44.858;38.372;2023-02-10T10:13:55;0.02;72.97
64918;HTU21D;52176;44.858;38.372;2023-02-10T10:16:51;0.07;72.92
64918;HTU21D;52176;44.858;38.372;2023-02-10T10:30:49;0.20;72.67
64918;HTU21D;52176;44.858;38.372;2023-02-10T10:33:36;0.18;72.58
64918;HTU21D;52176;44.858;38.372;2023-02-10T10:36:04;0.13;72.52
64918;HTU21D;52176;44.858;38.372;2023-02-10T10:38:33;0.07;72.61
64918;HTU21D;52176;44.858;38.372;2023-02-10T10:41:11;0.06;72.59
64918;HTU21D;52176;44.858;38.372;2023-02-10T10:43:46;0.02;72.49
64918;HTU21D;52176;44.858;38.372;2023-02-10T10:46:36;0.01;72.58
64918;HTU21D;52176;44.858;38.372;2023-02-10T10:49:05;0.02;72.48
64918;HTU21D;52176;44.858;38.372;2023-02-10T10:51:31;0.03;72.47
64918;HTU21D;52176;44.858;38.372;2023-02-10T10:54:01;0.07;72.45
64918;HTU21D;52176;44.858;38.372;2023-02-10T11:01:51;0.10;72.19
64918;HTU21D;52176;44.858;38.372;2023-02-10T11:04:25;0.13;72.16
64918;HTU21D;52176;44.858;38.372;2023-02-10T11:06:56;0.12;71.87
64918;HTU21D;52176;44.858;38.372;2023-02-10T11:09:34;0.06;72.06
64918;HTU21D;52176;44.858;38.372;2023-02-10T11:14:41;0.12;72.09
64918;HTU21D;52176;44.858;38.372;2023-02-10T11:19:59;0.24;71.77
64918;HTU21D;52176;44.858;38.372;2023-02-10T11:22:26;0.25;71.77
64918;HTU21D;52176;44.858;38.372;2023-02-10T11:24:54;0.35;71.77
64918;HTU21D;52176;44.858;38.372;2023-02-10T11:27:21;0.43;71.63
64918;HTU21D;52176;44.858;38.372;2023-02-10T11:29:56;0.52;71.55
64918;HTU21D;52176;44.858;38.372;2023-02-10T11:32:29;0.62;71.32
64918;HTU21D;52176;44.858;38.372;2023-02-10T11:34:59;0.69;71.27
64918;HTU21D;52176;44.858;38.372;2023-02-10T11:37:34;0.73;70.88
64918;HTU21D;52176;44.858;38.372;2023-02-10T11:43:05;0.74;71.03
64918;HTU21D;52176;44.858;38.372;2023-02-10T11:45:31;0.77;70.97
64918;HTU21D;52176;44.858;38.372;2023-02-10T11:48:13;0.79;70.87
64918;HTU21D;52176;44.858;38.372;2023-02-10T11:50:40;0.77;70.70
64918;HTU21D;52176;44.858;38.372;2023-02-10T11:53:21;0.67;70.75
64918;HTU21D;52176;44.858;38.372;2023-02-10T11:59:02;0.61;70.66
64918;HTU21D;52176;44.858;38.372;2023-02-10T12:04:18;0.63;70.88
64918;HTU21D;52176;44.858;38.372;2023-02-10T12:12:17;0.79;70.59
64918;HTU21D;52176;44.858;38.372;2023-02-10T12:17:23;0.84;70.45
64918;HTU21D;52176;44.858;38.372;2023-02-10T12:20:13;0.82;70.25
64918;HTU21D;52176;44.858;38.372;2023-02-10T12:25:15;0.63;70.16
64918;HTU21D;52176;44.858;38.372;2023-02-10T12:28:17;0.58;70.40
64918;HTU21D;52176;44.858;38.372;2023-02-10T12:39:01;0.40;70.40
64918;HTU21D;52176;44.858;38.372;2023-02-10T12:50:21;0.20;70.52
64918;HTU21D;52176;44.858;38.372;2023-02-10T12:52:58;0.15;70.56
64918;HTU21D;52176;44.858;38.372;2023-02-10T12:55:39;0.10;70.61
64918;HTU21D;52176;44.858;38.372;2023-02-10T12:58:16;0.07;70.61
64918;HTU21D;52176;44.858;38.372;2023-02-10T13:00:48;-0.01;70.55
64918;HTU21D;52176;44.858;38.372;2023-02-10T13:03:44;-0.07;70.67
64918;HTU21D;52176;44.858;38.372;2023-02-10T13:06:25;-0.13;70.70
64918;HTU21D;52176;44.858;38.372;2023-02-10T13:09:14;-0.25;70.64
64918;HTU21D;52176;44.858;38.372;2023-02-10T13:14:23;-0.41;70.80
64918;HTU21D;52176;44.858;38.372;2023-02-10T13:16:53;-0.50;70.78
64918;HTU21D;52176;44.858;38.372;2023-02-10T13:19:49;-0.58;70.86
64918;HTU21D;52176;44.858;38.372;2023-02-10T13:22:22;-0.62;70.97
64918;HTU21D;52176;44.858;38.372;2023-02-10T13:25:11;-0.64;71.07
64918;HTU21D;52176;44.858;38.372;2023-02-10T13:30:42;-0.74;71.02
64918;HTU21D;52176;44.858;38.372;2023-02-10T13:33:27;-0.83;71.06
64918;HTU21D;52176;44.858;38.372;2023-02-10T13:35:56;-0.89;71.16
64918;HTU21D;52176;44.858;38.372;2023-02-10T13:38:22;-0.98;70.90
64918;HTU21D;52176;44.858;38.372;2023-02-10T13:40:53;-1.15;70.93
64918;HTU21D;52176;44.858;38.372;2023-02-10T13:43:40;-1.26;71.29
64918;HTU21D;52176;44.858;38.372;2023-02-10T13:46:23;-1.32;71.39
64918;HTU21D;52176;44.858;38.372;2023-02-10T13:48:57;-1.33;71.51
64918;HTU21D;52176;44.858;38.372;2023-02-10T13:51:35;-1.38;71.52
64918;HTU21D;52176;44.858;38.372;2023-02-10T13:54:01;-1.42;71.51
64918;HTU21D;52176;44.858;38.372;2023-02-10T13:56:30;-1.47;71.55
64918;HTU21D;52176;44.858;38.372;2023-02-10T13:58:58;-1.54;71.58
64918;HTU21D;52176;44.858;38.372;2023-02-10T14:01:47;-1.61;71.66
64918;HTU21D;52176;44.858;38.372;2023-02-10T14:12:57;-1.80;71.87
64918;HTU21D;52176;44.858;38.372;2023-02-10T14:15:26;-1.85;71.87
64918;HTU21D;52176;44.858;38.372;2023-02-10T14:17:59;-1.91;71.92
64918;HTU21D;52176;44.858;38.372;2023-02-10T14:20:33;-1.99;71.92
64918;HTU21D;52176;44.858;38.372;2023-02-10T14:23:01;-2.07;71.93
64918;HTU21D;52176;44.858;38.372;2023-02-10T14:25:37;-2.17;72.03
64918;HTU21D;52176;44.858;38.372;2023-02-10T14:28:04;-2.26;72.12
64918;HTU21D;52176;44.858;38.372;2023-02-10T14:30:38;-2.32;72.21
64918;HTU21D;52176;44.858;38.372;2023-02-10T14:33:13;-2.38;72.19
64918;HTU21D;52176;44.858;38.372;2023-02-10T14:35:49;-2.49;72.22
64918;HTU21D;52176;44.858;38.372;2023-02-10T14:38:24;-2.54;72.35
64918;HTU21D;52176;44.858;38.372;2023-02-10T14:40:52;-2.61;72.36
64918;HTU21D;52176;44.858;38.372;2023-02-10T14:43:27;-2.65;72.40
64918;HTU21D;52176;44.858;38.372;2023-02-10T14:45:57;-2.71;72.48
64918;HTU21D;52176;44.858;38.372;2023-02-10T14:48:23;-2.74;72.53
64918;HTU21D;52176;44.858;38.372;2023-02-10T14:51:07;-2.78;72.56
64918;HTU21D;52176;44.858;38.372;2023-02-10T14:53:36;-2.79;72.60
64918;HTU21D;52176;44.858;38.372;2023-02-10T14:56:05;-2.82;72.59
64918;HTU21D;52176;44.858;38.372;2023-02-10T14:58:31;-2.87;72.65
64918;HTU21D;52176;44.858;38.372;2023-02-10T15:01:11;-2.88;72.67
64918;HTU21D;52176;44.858;38.372;2023-02-10T15:03:39;-2.94;72.62
64918;HTU21D;52176;44.858;38.372;2023-02-10T15:06:06;-3.02;72.65
64918;HTU21D;52176;44.858;38.372;2023-02-10T15:08:34;-3.08;72.69
64918;HTU21D;52176;44.858;38.372;2023-02-10T15:11:03;-3.15;72.73
64918;HTU21D;52176;44.858;38.372;2023-02-10T15:13:36;-3.22;72.79
64918;HTU21D;52176;44.858;38.372;2023-02-10T15:16:04;-3.32;72.80
64918;HTU21D;52176;44.858;38.372;2023-02-10T15:18:34;-3.43;72.78
64918;HTU21D;52176;44.858;38.372;2023-02-10T15:21:03;-3.53;72.88
64918;HTU21D;52176;44.858;38.372;2023-02-10T15:23:30;-3.60;72.98
64918;HTU21D;52176;44.858;38.372;2023-02-10T15:26:13;-3.67;73.01
64918;HTU21D;52176;44.858;38.372;2023-02-10T15:28:41;-3.75;73.04
64918;HTU21D;52176;44.858;38.372;2023-02-10T15:33:51;-3.89;73.18
64918;HTU21D;52176;44.858;38.372;2023-02-10T15:36:27;-3.95;73.19
64918;HTU21D;52176;44.858;38.372;2023-02-10T15:44:00;-4.07;73.31
64918;HTU21D;52176;44.858;38.372;2023-02-10T15:46:28;-4.11;73.33
64918;HTU21D;52176;44.858;38.372;2023-02-10T15:49:24;-4.15;73.44
64918;HTU21D;52176;44.858;38.372;2023-02-10T15:51:52;-4.19;73.44
64918;HTU21D;52176;44.858;38.372;2023-02-10T15:54:23;-4.21;73.45
64918;HTU21D;52176;44.858;38.372;2023-02-10T15:56:57;-4.27;73.48
64918;HTU21D;52176;44.858;38.372;2023-02-10T15:59:24;-4.34;73.48
64918;HTU21D;52176;44.858;38.372;2023-02-10T16:01:54;-4.40;73.52
64918;HTU21D;52176;44.858;38.372;2023-02-10T16:04:21;-4.46;73.58
64918;HTU21D;52176;44.858;38.372;2023-02-10T16:06:47;-4.52;73.62
64918;HTU21D;52176;44.858;38.372;2023-02-10T16:09:13;-4.56;73.67
64918;HTU21D;52176;44.858;38.372;2023-02-10T16:11:40;-4.63;73.73
64918;HTU21D;52176;44.858;38.372;2023-02-10T16:14:06;-4.67;73.75
64918;HTU21D;52176;44.858;38.372;2023-02-10T16:16:32;-4.72;73.77
64918;HTU21D;52176;44.858;38.372;2023-02-10T16:18:58;-4.78;73.83
64918;HTU21D;52176;44.858;38.372;2023-02-10T16:21:24;-4.81;73.97
64918;HTU21D;52176;44.858;38.372;2023-02-10T16:23:50;-4.82;73.97
64918;HTU21D;52176;44.858;38.372;2023-02-10T16:26:23;-4.86;73.99
64918;HTU21D;52176;44.858;38.372;2023-02-10T16:28:50;-4.88;74.03
64918;HTU21D;52176;44.858;38.372;2023-02-10T16:31:16;-4.89;74.09
64918;HTU21D;52176;44.858;38.372;2023-02-10T16:33:45;-4.90;74.09
64918;HTU21D;52176;44.858;38.372;2023-02-10T16:36:16;-4.90;74.09
64918;HTU21D;52176;44.858;38.372;2023-02-10T16:39:17;-4.94;74.06
64918;HTU21D;52176;44.858;38.372;2023-02-10T16:42:16;-4.98;74.06
64918;HTU21D;52176;44.858;38.372;2023-02-10T16:44:42;-5.00;74.09
64918;HTU21D;52176;44.858;38.372;2023-02-10T16:47:17;-5.02;74.13
64918;HTU21D;52176;44.858;38.372;2023-02-10T16:49:43;-5.04;74.13
64918;HTU21D;52176;44.858;38.372;2023-02-10T16:52:09;-5.03;74.18
64918;HTU21D;52176;44.858;38.372;2023-02-10T16:54:35;-5.02;74.24
64918;HTU21D;52176;44.858;38.372;2023-02-10T16:57:01;-4.98;74.27
64918;HTU21D;52176;44.858;38.372;2023-02-10T16:59:27;-4.95;74.27
64918;HTU21D;52176;44.858;38.372;2023-02-10T17:01:55;-4.91;74.24
64918;HTU21D;52176;44.858;38.372;2023-02-10T17:04:21;-4.87;74.26
64918;HTU21D;52176;44.858;38.372;2023-02-10T17:06:48;-4.86;74.22
64918;HTU21D;52176;44.858;38.372;2023-02-10T17:09:17;-4.87;74.18
64918;HTU21D;52176;44.858;38.372;2023-02-10T17:11:43;-4.90;74.20
64918;HTU21D;52176;44.858;38.372;2023-02-10T17:14:09;-4.94;74.23
64918;HTU21D;52176;44.858;38.372;2023-02-10T17:16:38;-5.00;74.28
64918;HTU21D;52176;44.858;38.372;2023-02-10T17:19:06;-5.07;74.34
64918;HTU21D;52176;44.858;38.372;2023-02-10T17:21:32;-5.11;74.40
64918;HTU21D;52176;44.858;38.372;2023-02-10T17:23:59;-5.15;74.44